Time;durP1;ratioP1;P1;durP2;ratioP2;P2;SDS_P1;SDS_P2;PMS_P1;PMS_P2;Temp;Humidity;BMP_temperature;BMP_pressure;BME280_temperature;BME280_humidity;BME280_pressure;Samples;Min_cycle;Max_cycle;Signal;HPM_P1;HPM_P2
2022/01/20 00:00:32;;;;;;;17.77;1.58;;;5.60;99.90;;;;;;5093062;28;20052;-82
2022/01/20 00:03:01;;;;;;;18.38;1.63;;;5.70;99.90;;;;;;5092768;28;20151;-82
2022/01/20 00:06:20;;;;;;;15.35;1.23;;;5.60;99.90;;;;;;5092774;28;20192;-82
2022/01/20 00:08:52;;;;;;;13.60;1.25;;;5.70;99.90;;;;;;5091929;28;20384;-82
2022/01/20 00:27:53;;;;;;;17.90;1.48;;;5.80;99.90;;;;;;5096483;28;20055;-82
2022/01/20 00:37:14;;;;;;;25.65;1.50;;;5.80;99.90;;;;;;5096058;28;20491;-82
2022/01/20 00:38:17;;;;;;;14.48;2.15;;;5.80;99.90;;;;;;5096027;28;20060;-82
2022/01/20 00:40:43;;;;;;;16.05;1.23;;;5.90;99.90;;;;;;5096540;28;20055;-82
2022/01/20 00:43:08;;;;;;;17.02;2.38;;;5.80;99.90;;;;;;5096101;28;20399;-82
2022/01/20 00:45:34;;;;;;;12.80;1.85;;;5.90;99.90;;;;;;5096150;28;20127;-82
2022/01/20 00:48:00;;;;;;;18.17;1.88;;;5.90;99.90;;;;;;5079066;28;20051;-82
2022/01/20 00:50:25;;;;;;;16.52;1.50;;;5.90;99.90;;;;;;5078729;28;20131;-82
2022/01/20 00:52:51;;;;;;;14.85;1.50;;;6.00;99.90;;;;;;5079122;28;20093;-82
2022/01/20 00:55:18;;;;;;;22.75;2.42;;;6.00;99.90;;;;;;5095569;28;20044;-82
2022/01/20 00:57:44;;;;;;;23.80;1.65;;;6.00;99.90;;;;;;5096142;28;20101;-82
2022/01/20 01:00:12;;;;;;;20.40;2.25;;;6.10;99.90;;;;;;5096414;28;20043;-82
2022/01/20 01:02:39;;;;;;;12.75;1.50;;;6.00;99.90;;;;;;5095425;28;20538;-82
2022/01/20 01:05:06;;;;;;;17.98;1.70;;;6.00;99.90;;;;;;5078748;28;20052;-82
2022/01/20 01:09:58;;;;;;;19.73;1.80;;;5.90;99.90;;;;;;5096102;28;20055;-82
2022/01/20 01:12:36;;;;;;;22.60;2.35;;;5.90;99.90;;;;;;5129930;27;20093;-82
2022/01/20 01:15:06;;;;;;;13.15;1.88;;;5.80;99.90;;;;;;5095340;28;20070;-82
2022/01/20 01:20:17;;;;;;;13.43;1.55;;;5.60;99.90;;;;;;5094744;28;20055;-81
2022/01/20 01:22:43;;;;;;;10.30;0.95;;;5.50;99.90;;;;;;5095277;28;20055;-81
2022/01/20 01:25:09;;;;;;;6.57;0.52;;;5.40;99.90;;;;;;5095854;28;20387;-82
2022/01/20 01:27:38;;;;;;;10.80;1.00;;;5.50;99.90;;;;;;5095502;28;20126;-82
2022/01/20 01:30:22;;;;;;;11.45;0.85;;;5.50;99.90;;;;;;5096124;28;20052;-81
2022/01/20 01:32:53;;;;;;;6.88;0.88;;;5.50;99.90;;;;;;5095571;28;20052;-81
2022/01/20 01:35:23;;;;;;;16.88;0.93;;;5.50;99.90;;;;;;5096318;28;20092;-81
2022/01/20 01:40:33;;;;;;;14.80;1.20;;;5.40;99.90;;;;;;5095316;28;20087;-81
2022/01/20 01:43:02;;;;;;;7.38;0.65;;;5.40;99.90;;;;;;5094939;28;20056;-82
2022/01/20 01:45:34;;;;;;;8.38;0.80;;;5.40;99.90;;;;;;5095577;28;20274;-82
2022/01/20 01:48:01;;;;;;;12.15;1.15;;;5.40;99.90;;;;;;5095126;28;20051;-81
2022/01/20 01:50:28;;;;;;;8.77;0.98;;;5.40;99.90;;;;;;5095076;28;20075;-82
2022/01/20 01:52:55;;;;;;;5.18;0.90;;;5.40;99.90;;;;;;5094460;28;20051;-82
2022/01/20 01:55:22;;;;;;;16.60;1.33;;;5.50;99.90;;;;;;5094772;28;20097;-82
2022/01/20 01:57:48;;;;;;;10.85;1.60;;;5.60;99.90;;;;;;5077894;28;20062;-82
2022/01/20 02:00:16;;;;;;;8.20;0.90;;;5.70;99.90;;;;;;5095127;28;20048;-82
2022/01/20 02:02:43;;;;;;;14.43;1.20;;;5.70;99.90;;;;;;5077158;28;20121;-82
2022/01/20 02:05:12;;;;;;;16.80;1.45;;;5.60;99.90;;;;;;5077810;28;20462;-81
2022/01/20 02:18:47;;;;;;;23.48;1.98;;;5.40;99.90;;;;;;5093486;28;20063;-82
2022/01/20 02:21:13;;;;;;;20.58;1.73;;;5.50;99.90;;;;;;5094754;28;20090;-82
2022/01/20 02:23:39;;;;;;;19.15;1.50;;;5.50;99.90;;;;;;5094001;28;20440;-82
2022/01/20 02:26:05;;;;;;;23.15;2.05;;;5.60;99.90;;;;;;5093947;28;20434;-82
2022/01/20 02:28:31;;;;;;;19.23;2.17;;;5.70;99.90;;;;;;5095032;28;20083;-82
2022/01/20 02:30:57;;;;;;;20.05;2.28;;;5.50;99.90;;;;;;5076799;28;20057;-82
2022/01/20 02:33:25;;;;;;;8.80;2.05;;;5.10;99.90;;;;;;5093532;28;20117;-82
2022/01/20 02:35:54;;;;;;;25.27;2.63;;;5.00;99.90;;;;;;5093687;28;20423;-82
2022/01/20 02:38:32;;;;;;;18.73;2.15;;;4.90;99.90;;;;;;5093645;28;20051;-82
2022/01/20 02:46:29;;;;;;;23.52;2.00;;;5.00;99.90;;;;;;5094682;28;20136;-82
2022/01/20 02:48:55;;;;;;;18.30;2.25;;;5.00;99.90;;;;;;5093076;28;20122;-82
2022/01/20 02:51:20;;;;;;;16.65;2.25;;;5.10;99.90;;;;;;5093612;28;20047;-82
2022/01/20 02:53:46;;;;;;;22.65;2.20;;;5.10;99.90;;;;;;5093228;28;20052;-82
2022/01/20 02:56:12;;;;;;;26.45;2.42;;;5.10;99.90;;;;;;5093255;28;20058;-82
2022/01/20 02:58:37;;;;;;;22.95;2.78;;;5.20;99.90;;;;;;5093340;28;20051;-82
2022/01/20 03:01:03;;;;;;;21.45;2.10;;;5.20;99.90;;;;;;5093441;28;20051;-82
2022/01/20 03:03:29;;;;;;;28.25;3.47;;;5.20;99.90;;;;;;5092820;28;20102;-83
2022/01/20 03:05:55;;;;;;;26.30;2.80;;;5.30;99.50;;;;;;5093588;28;20495;-82
2022/01/20 03:08:20;;;;;;;35.20;4.63;;;5.30;99.40;;;;;;5093400;28;20502;-81
2022/01/20 03:10:46;;;;;;;22.88;3.00;;;5.30;99.30;;;;;;5093191;28;20512;-82
2022/01/20 03:13:12;;;;;;;23.42;3.30;;;5.30;98.90;;;;;;5093193;28;20549;-82
2022/01/20 03:15:39;;;;;;;27.73;3.50;;;5.30;98.80;;;;;;5093230;28;20052;-81
2022/01/20 03:18:05;;;;;;;23.73;2.90;;;5.30;98.60;;;;;;5092742;28;20054;-82
2022/01/20 03:20:32;;;;;;;28.73;3.45;;;5.40;98.90;;;;;;5092583;28;20044;-82
2022/01/20 03:22:59;;;;;;;25.65;3.95;;;5.40;99.00;;;;;;5128558;27;20121;-82
2022/01/20 03:25:25;;;;;;;26.60;2.70;;;5.30;99.10;;;;;;5093814;28;20549;-82
2022/01/20 03:27:50;;;;;;;31.98;2.97;;;5.30;98.80;;;;;;5093239;28;20483;-82
2022/01/20 03:30:16;;;;;;;34.80;2.95;;;5.30;98.90;;;;;;5093313;28;20052;-82
2022/01/20 03:32:42;;;;;;;24.35;3.40;;;5.20;98.90;;;;;;5093264;28;20044;-82
2022/01/20 03:35:08;;;;;;;29.70;3.80;;;5.20;99.30;;;;;;5092844;28;20051;-82
2022/01/20 03:37:34;;;;;;;28.65;2.92;;;5.20;99.00;;;;;;5093158;28;20082;-82
2022/01/20 03:40:00;;;;;;;24.58;3.28;;;5.20;98.90;;;;;;5093653;28;20048;-82
2022/01/20 03:42:26;;;;;;;31.10;3.28;;;5.20;98.60;;;;;;5093583;28;20096;-82
2022/01/20 03:44:52;;;;;;;25.73;3.15;;;5.20;98.70;;;;;;5094116;28;20444;-82
2022/01/20 03:47:19;;;;;;;22.10;2.42;;;5.20;97.70;;;;;;5092708;28;20437;-82
2022/01/20 03:50:07;;;;;;;19.67;1.83;;;5.10;97.40;;;;;;5092478;28;20052;-82
2022/01/20 03:52:33;;;;;;;17.08;2.28;;;5.10;96.50;;;;;;5126668;28;20119;-82
2022/01/20 03:54:59;;;;;;;17.70;1.83;;;5.00;95.10;;;;;;5092881;28;20054;-82
2022/01/20 03:57:25;;;;;;;18.50;2.00;;;4.90;95.00;;;;;;5092739;28;20135;-82
2022/01/20 03:59:51;;;;;;;10.50;1.92;;;4.90;94.60;;;;;;5094724;28;20051;-82
2022/01/20 04:02:16;;;;;;;15.13;1.83;;;4.90;94.60;;;;;;5130783;27;20044;-82
2022/01/20 04:04:42;;;;;;;17.35;2.15;;;4.90;94.40;;;;;;5097055;28;20113;-82
2022/01/20 04:07:08;;;;;;;15.23;2.25;;;4.80;94.00;;;;;;5096553;28;20044;-82
2022/01/20 04:09:33;;;;;;;21.88;2.05;;;4.80;93.60;;;;;;5096484;28;20047;-81
2022/01/20 04:11:59;;;;;;;13.02;1.75;;;4.70;93.70;;;;;;5096554;28;20048;-81
2022/01/20 04:14:27;;;;;;;14.05;1.90;;;4.90;93.80;;;;;;5096623;28;20044;-81
2022/01/20 04:19:23;;;;;;;15.02;1.63;;;4.90;93.60;;;;;;5096419;28;20052;-82
2022/01/20 04:21:49;;;;;;;15.00;1.90;;;4.90;94.20;;;;;;5096326;28;20048;-82
2022/01/20 04:24:15;;;;;;;14.65;1.77;;;4.90;93.60;;;;;;5096630;28;20372;-82
2022/01/20 04:26:43;;;;;;;13.60;1.83;;;4.90;93.30;;;;;;5131277;27;20052;-82
2022/01/20 04:29:13;;;;;;;12.40;1.75;;;4.90;93.30;;;;;;5079399;28;20063;-82
2022/01/20 04:31:40;;;;;;;12.02;1.55;;;4.90;93.50;;;;;;5079446;28;20044;-81
2022/01/20 04:34:07;;;;;;;9.75;1.60;;;5.00;93.30;;;;;;5096479;28;20415;-83
2022/01/20 04:36:37;;;;;;;12.13;1.40;;;5.00;93.30;;;;;;5096366;28;20376;-82
2022/01/20 04:39:06;;;;;;;17.08;2.03;;;5.10;93.40;;;;;;5096349;28;20067;-81
2022/01/20 04:41:32;;;;;;;14.38;2.17;;;5.00;93.20;;;;;;5130231;27;20498;-82
2022/01/20 04:43:59;;;;;;;14.68;2.33;;;5.00;93.90;;;;;;5078855;28;20060;-82
2022/01/20 04:57:20;;;;;;;13.35;1.38;;;4.90;94.90;;;;;;5074548;28;20056;-81
2022/01/20 04:59:47;;;;;;;12.98;2.45;;;4.80;95.10;;;;;;5096895;28;20106;-82
2022/01/20 05:02:13;;;;;;;12.50;1.30;;;4.80;95.40;;;;;;5095112;28;20071;-82
2022/01/20 05:04:39;;;;;;;15.40;1.75;;;4.60;95.70;;;;;;5095282;28;20487;-81
2022/01/20 05:07:07;;;;;;;12.45;1.88;;;4.70;95.60;;;;;;5078921;28;20055;-81
2022/01/20 05:09:33;;;;;;;15.98;1.70;;;4.70;95.70;;;;;;5096300;28;20479;-82
2022/01/20 05:12:09;;;;;;;17.90;1.48;;;4.70;96.00;;;;;;5094262;28;20051;-82
2022/01/20 05:14:35;;;;;;;13.80;1.95;;;4.70;96.00;;;;;;5095538;28;20368;-81
2022/01/20 05:17:01;;;;;;;12.73;1.42;;;4.50;95.70;;;;;;5095612;28;20105;-81
2022/01/20 05:19:30;;;;;;;7.95;1.00;;;4.50;95.70;;;;;;5095037;28;20052;-81
2022/01/20 05:21:56;;;;;;;8.50;0.60;;;4.40;96.20;;;;;;5095139;28;20044;-81
2022/01/20 05:24:22;;;;;;;6.55;0.63;;;4.30;96.00;;;;;;5095096;28;20052;-82
2022/01/20 05:26:50;;;;;;;4.95;0.68;;;4.10;96.20;;;;;;5077990;28;20059;-81
2022/01/20 05:29:17;;;;;;;7.78;0.60;;;4.10;96.30;;;;;;5095789;28;20123;-81
2022/01/20 05:31:42;;;;;;;4.03;0.60;;;4.10;96.10;;;;;;5094821;28;20130;-81
2022/01/20 05:34:08;;;;;;;9.07;0.85;;;4.10;96.20;;;;;;5094349;28;20139;-81
2022/01/20 05:36:34;;;;;;;11.20;1.10;;;4.10;96.20;;;;;;5090133;28;20475;-81
2022/01/20 05:38:59;;;;;;;13.23;1.55;;;4.10;96.20;;;;;;5090440;28;20179;-82
2022/01/20 05:41:25;;;;;;;13.68;1.17;;;4.10;96.40;;;;;;5094171;28;20043;-81
2022/01/20 05:43:51;;;;;;;14.50;0.95;;;4.10;96.60;;;;;;5094431;28;20048;-81
2022/01/20 05:46:22;;;;;;;27.58;2.90;;;4.20;96.80;;;;;;5094482;28;20174;-81
2022/01/20 05:48:48;;;;;;;15.95;1.90;;;4.20;96.90;;;;;;5093934;28;20054;-82
2022/01/20 05:51:14;;;;;;;15.32;2.53;;;4.20;97.00;;;;;;5077513;28;20052;-82
2022/01/20 05:53:40;;;;;;;25.27;2.60;;;4.20;96.90;;;;;;5094636;28;20059;-81
2022/01/20 05:56:06;;;;;;;11.95;1.27;;;4.10;97.00;;;;;;5094314;28;20383;-81
2022/01/20 05:58:36;;;;;;;16.77;1.58;;;4.20;96.20;;;;;;5094333;28;20046;-81
2022/01/20 06:01:04;;;;;;;21.05;1.92;;;4.10;96.20;;;;;;5094748;28;20483;-81
2022/01/20 06:03:36;;;;;;;16.23;1.85;;;4.20;96.00;;;;;;5093819;28;20473;-81
2022/01/20 06:06:06;;;;;;;12.10;1.48;;;4.20;95.90;;;;;;5094081;28;20138;-81
2022/01/20 06:08:34;;;;;;;17.15;2.63;;;4.30;95.80;;;;;;5094174;28;20112;-81
2022/01/20 06:10:59;;;;;;;13.75;2.45;;;4.30;95.40;;;;;;5077222;28;20126;-81
2022/01/20 06:13:25;;;;;;;19.75;2.63;;;4.30;95.60;;;;;;5093735;28;20123;-82
2022/01/20 06:15:51;;;;;;;15.38;2.22;;;4.40;95.70;;;;;;5094042;28;20056;-81
2022/01/20 06:18:17;;;;;;;19.20;1.95;;;4.50;95.50;;;;;;5076902;28;20047;-81
2022/01/20 06:20:44;;;;;;;16.23;1.80;;;4.50;95.60;;;;;;5093397;28;20043;-81
2022/01/20 06:23:10;;;;;;;18.73;2.80;;;4.60;95.60;;;;;;5093420;28;20056;-82
2022/01/20 06:25:37;;;;;;;22.83;2.38;;;4.60;95.60;;;;;;5093782;28;20397;-81
2022/01/20 06:28:03;;;;;;;19.42;2.53;;;4.60;95.60;;;;;;5093753;28;20052;-81
2022/01/20 06:30:31;;;;;;;14.88;2.10;;;4.50;95.90;;;;;;5093675;28;20052;-81
2022/01/20 06:32:57;;;;;;;20.77;2.45;;;4.60;96.10;;;;;;5093472;28;20055;-81
2022/01/20 06:35:23;;;;;;;20.90;2.40;;;4.60;96.20;;;;;;5093354;28;20123;-81
2022/01/20 06:37:48;;;;;;;23.45;2.88;;;4.60;97.00;;;;;;5076707;28;20135;-81
2022/01/20 06:40:15;;;;;;;18.95;1.90;;;4.40;98.00;;;;;;5093466;28;20181;-81
2022/01/20 06:42:40;;;;;;;14.73;1.88;;;4.20;98.70;;;;;;5093490;28;20475;-82
2022/01/20 06:45:09;;;;;;;14.27;1.90;;;4.20;99.00;;;;;;5076583;28;20044;-81
2022/01/20 06:47:35;;;;;;;17.02;2.15;;;4.00;99.20;;;;;;5093512;28;20063;-81
2022/01/20 06:50:01;;;;;;;17.42;1.77;;;4.10;99.00;;;;;;5092782;28;20479;-82
2022/01/20 06:52:29;;;;;;;14.30;1.92;;;4.00;98.90;;;;;;5129122;27;20387;-81
2022/01/20 06:54:56;;;;;;;16.77;2.05;;;3.80;98.90;;;;;;5102800;28;20096;-81
2022/01/20 06:57:22;;;;;;;13.90;1.35;;;3.70;98.80;;;;;;5100109;28;20055;-80
2022/01/20 06:59:48;;;;;;;15.35;2.20;;;3.70;99.00;;;;;;5094262;28;20055;-81
2022/01/20 07:02:14;;;;;;;19.60;1.58;;;3.70;98.80;;;;;;5093724;28;20066;-82
2022/01/20 07:04:40;;;;;;;23.40;2.15;;;3.70;98.70;;;;;;5093315;28;20570;-81
2022/01/20 07:07:06;;;;;;;19.20;2.22;;;3.70;98.70;;;;;;5093059;28;20088;-82
2022/01/20 07:09:33;;;;;;;19.27;2.33;;;3.80;98.60;;;;;;5093016;28;20047;-81
2022/01/20 07:11:59;;;;;;;18.13;1.58;;;3.90;98.40;;;;;;5092909;28;20060;-81
2022/01/20 07:14:25;;;;;;;18.77;1.60;;;3.80;98.40;;;;;;5093010;28;20113;-81
2022/01/20 07:16:51;;;;;;;17.58;1.80;;;3.90;98.40;;;;;;5093091;28;20425;-81
2022/01/20 07:19:16;;;;;;;15.88;1.98;;;3.90;98.40;;;;;;5092641;28;20387;-82
2022/01/20 07:21:43;;;;;;;11.88;2.25;;;4.00;98.30;;;;;;5092872;28;20048;-82
2022/01/20 07:24:09;;;;;;;15.50;2.08;;;4.10;98.30;;;;;;5092504;28;20490;-82
2022/01/20 07:26:34;;;;;;;20.52;2.45;;;4.00;98.00;;;;;;5076163;28;20047;-81
2022/01/20 07:29:00;;;;;;;17.05;1.73;;;3.90;98.60;;;;;;5093131;28;20079;-82
2022/01/20 07:31:26;;;;;;;15.32;1.60;;;3.90;98.60;;;;;;5076419;28;20040;-81
2022/01/20 07:33:51;;;;;;;10.98;1.15;;;3.90;98.00;;;;;;5092760;28;20040;-82
2022/01/20 07:36:18;;;;;;;11.60;1.25;;;3.90;97.40;;;;;;5097037;28;20044;-81
2022/01/20 07:38:44;;;;;;;14.82;1.60;;;3.80;97.40;;;;;;5097276;28;20055;-81
2022/01/20 07:41:10;;;;;;;18.80;1.73;;;3.80;97.70;;;;;;5096892;28;20560;-81
2022/01/20 07:43:35;;;;;;;14.07;1.90;;;3.80;97.70;;;;;;5096879;28;20422;-81
2022/01/20 07:46:01;;;;;;;15.90;1.90;;;3.80;98.00;;;;;;5096874;28;20042;-82
2022/01/20 07:48:27;;;;;;;17.13;2.03;;;4.00;98.00;;;;;;5096522;28;20055;-81
2022/01/20 07:50:53;;;;;;;15.20;2.13;;;3.90;97.90;;;;;;5096252;28;20044;-82
2022/01/20 07:53:19;;;;;;;19.52;1.92;;;4.00;98.10;;;;;;5096382;28;20096;-81
2022/01/20 07:55:44;;;;;;;15.65;1.40;;;4.00;98.10;;;;;;5096547;28;20048;-81
2022/01/20 07:58:10;;;;;;;12.23;1.55;;;4.10;98.60;;;;;;5096503;28;20044;-81
2022/01/20 08:00:36;;;;;;;13.07;1.40;;;4.10;98.90;;;;;;5096551;28;20193;-82
2022/01/20 08:03:01;;;;;;;10.60;1.20;;;4.30;98.90;;;;;;5096271;28;20056;-82
2022/01/20 08:05:27;;;;;;;12.90;1.63;;;4.20;98.60;;;;;;5096471;28;20052;-82
2022/01/20 08:07:53;;;;;;;12.65;1.10;;;4.00;98.80;;;;;;5096992;28;20467;-81
2022/01/20 08:10:18;;;;;;;15.55;1.40;;;3.90;98.90;;;;;;5096351;28;20044;-82
2022/01/20 08:12:44;;;;;;;14.88;1.70;;;4.00;98.90;;;;;;5096177;28;20125;-81
2022/01/20 08:15:12;;;;;;;13.50;2.13;;;4.00;98.70;;;;;;5096227;28;20048;-81
2022/01/20 08:17:39;;;;;;;17.65;1.75;;;3.90;98.80;;;;;;5096298;28;20099;-81
2022/01/20 08:20:06;;;;;;;21.25;2.33;;;3.90;98.80;;;;;;5079203;28;20042;-82
2022/01/20 08:22:34;;;;;;;22.67;1.80;;;3.90;98.80;;;;;;5095767;28;20047;-82
2022/01/20 08:25:09;;;;;;;23.77;2.90;;;4.00;98.90;;;;;;5096158;28;20131;-82
2022/01/20 08:27:37;;;;;;;13.63;1.80;;;4.00;98.80;;;;;;5096063;28;20074;-82
2022/01/20 08:30:07;;;;;;;15.38;1.95;;;4.00;98.50;;;;;;5130198;27;20052;-81
2022/01/20 08:32:33;;;;;;;17.60;1.83;;;3.90;98.30;;;;;;5096573;28;20053;-82
2022/01/20 08:35:04;;;;;;;14.27;1.77;;;3.90;97.40;;;;;;5130262;27;20551;-79
2022/01/20 08:37:30;;;;;;;16.58;1.70;;;3.90;97.30;;;;;;5095567;28;20079;-80
2022/01/20 08:39:56;;;;;;;12.70;1.38;;;4.10;96.80;;;;;;5096426;28;20087;-81
2022/01/20 08:42:23;;;;;;;15.73;1.70;;;4.10;96.50;;;;;;5095816;28;20087;-84
2022/01/20 08:44:49;;;;;;;12.63;1.48;;;4.20;96.20;;;;;;5078519;28;20051;-80
2022/01/20 08:47:20;;;;;;;15.93;1.38;;;4.20;96.00;;;;;;5095895;28;20122;-80
2022/01/20 08:49:46;;;;;;;16.40;1.92;;;4.30;96.00;;;;;;5078338;28;20391;-80
2022/01/20 08:52:13;;;;;;;12.38;1.30;;;4.30;96.10;;;;;;5095441;28;20502;-79
2022/01/20 08:54:38;;;;;;;5.90;0.93;;;4.50;96.20;;;;;;5095544;28;20067;-80
2022/01/20 08:57:05;;;;;;;7.15;0.85;;;4.40;97.10;;;;;;5078577;28;20055;-81
2022/01/20 08:59:30;;;;;;;11.00;1.15;;;4.10;98.50;;;;;;5095324;28;20135;-80
2022/01/20 09:01:56;;;;;;;9.40;0.70;;;3.90;99.20;;;;;;5095468;28;20089;-78
2022/01/20 09:04:22;;;;;;;15.38;1.10;;;3.60;98.80;;;;;;5102242;28;20059;-81
2022/01/20 09:06:48;;;;;;;9.75;1.35;;;3.60;98.80;;;;;;5097994;28;20423;-80
2022/01/20 09:09:16;;;;;;;14.65;1.02;;;3.60;98.50;;;;;;5095429;28;20387;-76
2022/01/20 09:11:51;;;;;;;9.77;1.83;;;3.60;98.00;;;;;;5095121;28;20052;-76
2022/01/20 09:17:02;;;;;;;11.50;0.70;;;3.80;97.90;;;;;;5095331;28;20520;-75
2022/01/20 09:19:28;;;;;;;11.40;1.15;;;3.90;97.80;;;;;;5094672;28;20410;-76
2022/01/20 09:21:54;;;;;;;7.82;1.10;;;3.90;97.70;;;;;;5094987;28;20048;-76
2022/01/20 09:24:19;;;;;;;9.70;1.50;;;4.00;97.90;;;;;;5094999;28;20117;-76
2022/01/20 09:26:45;;;;;;;7.88;0.75;;;3.90;98.80;;;;;;5095132;28;20131;-76
2022/01/20 09:29:11;;;;;;;11.13;0.80;;;3.80;98.80;;;;;;5094739;28;20090;-76
2022/01/20 09:31:38;;;;;;;5.85;1.25;;;3.80;99.10;;;;;;5077987;28;20463;-77
2022/01/20 09:34:04;;;;;;;12.75;1.20;;;3.80;99.00;;;;;;5094446;28;20048;-75
2022/01/20 09:36:30;;;;;;;13.20;1.25;;;3.70;99.10;;;;;;5078988;28;20463;-77
2022/01/20 09:38:56;;;;;;;15.35;1.52;;;3.80;99.30;;;;;;5129048;27;20054;-77
2022/01/20 09:41:22;;;;;;;9.07;1.13;;;3.90;99.30;;;;;;5094670;28;20055;-78
2022/01/20 09:43:49;;;;;;;9.15;0.77;;;4.00;99.30;;;;;;5077760;28;20380;-78
2022/01/20 09:46:14;;;;;;;11.80;1.38;;;4.00;99.20;;;;;;5076450;28;20162;-78
2022/01/20 09:48:40;;;;;;;16.27;1.33;;;4.10;99.10;;;;;;5074023;28;20500;-78
2022/01/20 09:51:06;;;;;;;17.50;1.98;;;4.20;99.00;;;;;;5073530;28;20048;-78
2022/01/20 09:53:32;;;;;;;13.60;1.90;;;4.30;98.70;;;;;;5073819;28;20044;-78
2022/01/20 09:55:58;;;;;;;16.17;2.00;;;4.40;99.00;;;;;;5057144;28;20056;-78
2022/01/20 09:58:24;;;;;;;14.13;1.40;;;4.60;99.00;;;;;;5072902;28;20052;-80
2022/01/20 10:00:51;;;;;;;17.65;1.75;;;4.80;98.40;;;;;;5073918;28;20051;-79
2022/01/20 10:03:20;;;;;;;10.60;1.30;;;4.90;98.20;;;;;;5065099;28;20135;-78
2022/01/20 10:05:51;;;;;;;17.70;2.13;;;4.80;97.50;;;;;;5076879;28;20059;-79
2022/01/20 10:08:26;;;;;;;12.50;1.63;;;4.80;97.50;;;;;;5093857;28;20048;-78
2022/01/20 10:11:10;;;;;;;14.70;1.38;;;4.70;97.30;;;;;;5093927;28;20052;-78
2022/01/20 10:13:42;;;;;;;14.57;2.10;;;4.90;97.40;;;;;;5096342;28;20044;-77
2022/01/20 10:16:10;;;;;;;13.63;1.65;;;5.10;97.20;;;;;;5093814;28;20070;-76
2022/01/20 10:18:57;;;;;;;24.25;2.22;;;5.10;96.90;;;;;;5077185;28;20044;-76
2022/01/20 10:21:28;;;;;;;19.13;1.55;;;5.20;97.10;;;;;;5093817;28;20059;-77
2022/01/20 10:23:54;;;;;;;12.07;1.90;;;5.30;97.40;;;;;;5093579;28;20126;-73
2022/01/20 10:26:22;;;;;;;11.35;1.60;;;5.30;96.90;;;;;;5076655;28;20134;-76
2022/01/20 10:29:00;;;;;;;15.90;2.08;;;5.00;96.70;;;;;;5093478;28;20139;-75
2022/01/20 10:31:33;;;;;;;12.60;2.33;;;5.00;96.80;;;;;;5093264;28;20048;-77
2022/01/20 10:33:59;;;;;;;14.40;1.80;;;4.90;96.90;;;;;;5072075;28;20402;-80
2022/01/20 10:36:25;;;;;;;15.07;1.52;;;5.10;97.70;;;;;;5073308;28;20051;-74
2022/01/20 10:38:52;;;;;;;14.55;1.85;;;5.00;97.10;;;;;;5070031;28;20106;-77
2022/01/20 10:41:39;;;;;;;13.43;1.63;;;5.20;97.20;;;;;;5055391;28;20139;-75
2022/01/20 10:44:09;;;;;;;18.33;2.22;;;5.30;97.30;;;;;;5073228;28;20048;-77
2022/01/20 10:46:44;;;;;;;20.20;2.22;;;5.50;97.10;;;;;;5056611;28;20044;-77
2022/01/20 10:49:10;;;;;;;15.43;1.67;;;5.40;97.00;;;;;;5106437;28;20049;-76
2022/01/20 10:51:36;;;;;;;18.20;1.88;;;5.30;97.20;;;;;;5106873;28;20049;-77
2022/01/20 10:54:13;;;;;;;13.73;1.60;;;5.30;97.10;;;;;;5106525;28;20044;-82
2022/01/20 10:56:52;;;;;;;19.60;1.60;;;5.50;96.60;;;;;;5107770;28;20052;-81
2022/01/20 10:59:20;;;;;;;14.00;1.50;;;5.30;96.10;;;;;;5106568;28;20052;-83
2022/01/20 11:02:02;;;;;;;11.07;1.38;;;5.30;96.30;;;;;;5106790;28;20139;-83
2022/01/20 11:04:29;;;;;;;7.70;1.30;;;5.30;96.00;;;;;;5072682;28;20088;-80
2022/01/20 11:06:56;;;;;;;9.02;1.70;;;5.40;96.00;;;;;;5106758;28;20129;-81
2022/01/20 11:09:23;;;;;;;17.63;1.95;;;5.50;96.10;;;;;;5106702;28;20480;-84
2022/01/20 11:11:51;;;;;;;16.10;1.60;;;5.70;95.80;;;;;;5107122;28;20044;-80
2022/01/20 11:14:17;;;;;;;13.18;1.50;;;5.80;95.90;;;;;;5106419;28;20084;-81
2022/01/20 11:16:43;;;;;;;11.15;2.05;;;5.80;95.50;;;;;;5106707;28;20099;-82
2022/01/20 11:19:21;;;;;;;16.42;1.92;;;5.70;95.50;;;;;;5106259;28;20434;-82
2022/01/20 11:21:48;;;;;;;15.65;1.73;;;5.70;95.30;;;;;;5106555;28;20052;-83
2022/01/20 11:24:25;;;;;;;13.45;2.05;;;5.50;95.30;;;;;;5072355;28;20049;-80
2022/01/20 11:26:57;;;;;;;21.38;2.08;;;5.60;95.90;;;;;;5106799;28;20070;-82
2022/01/20 11:29:37;;;;;;;20.17;2.53;;;5.60;96.80;;;;;;5072853;28;20049;-82
2022/01/20 11:32:14;;;;;;;24.98;3.22;;;5.50;97.10;;;;;;5072748;28;20070;-80
2022/01/20 11:34:39;;;;;;;17.83;2.22;;;5.30;97.30;;;;;;5106183;28;20446;-71
2022/01/20 11:37:10;;;;;;;19.42;2.25;;;5.50;97.60;;;;;;5106346;28;20049;-75
2022/01/20 11:39:36;;;;;;;13.98;2.08;;;5.80;97.30;;;;;;5106497;28;20044;-76
2022/01/20 11:42:02;;;;;;;13.63;2.10;;;6.10;97.30;;;;;;5105383;28;20079;-75
2022/01/20 11:44:31;;;;;;;20.27;2.00;;;6.10;97.00;;;;;;5082145;28;20088;-74
2022/01/20 11:47:08;;;;;;;20.88;1.92;;;5.60;97.70;;;;;;5055638;28;20441;-72
2022/01/20 11:49:46;;;;;;;16.48;2.20;;;5.30;98.70;;;;;;5072336;28;20143;-75
2022/01/20 11:52:25;;;;;;;17.08;2.00;;;5.00;99.10;;;;;;5075665;28;20119;-75
2022/01/20 11:54:51;;;;;;;13.30;1.67;;;4.80;99.50;;;;;;5084261;28;20387;-74
2022/01/20 11:57:20;;;;;;;21.67;2.40;;;4.70;99.30;;;;;;5092330;28;20041;-75
2022/01/20 11:59:53;;;;;;;13.35;2.22;;;4.60;99.20;;;;;;5089983;28;20477;-76
2022/01/20 12:02:34;;;;;;;11.77;1.90;;;4.80;99.10;;;;;;5091405;28;20044;-74
2022/01/20 12:05:01;;;;;;;21.65;2.42;;;5.20;98.70;;;;;;5085705;28;20109;-75
2022/01/20 12:07:32;;;;;;;18.45;2.08;;;5.60;98.40;;;;;;5092644;28;20044;-75
2022/01/20 12:10:16;;;;;;;16.65;1.92;;;5.90;97.40;;;;;;5092338;28;20066;-77
2022/01/20 12:12:43;;;;;;;22.52;2.20;;;6.00;97.60;;;;;;5078934;28;20086;-78
2022/01/20 12:15:15;;;;;;;15.90;2.15;;;5.80;97.70;;;;;;5091582;28;20384;-77
2022/01/20 12:17:52;;;;;;;16.70;2.30;;;5.80;97.80;;;;;;5075290;28;20082;-79
2022/01/20 12:20:19;;;;;;;19.20;2.60;;;5.80;97.90;;;;;;5065743;28;20052;-78
2022/01/20 12:22:46;;;;;;;18.23;1.90;;;5.70;97.80;;;;;;5075348;28;20059;-76
2022/01/20 12:25:26;;;;;;;15.88;1.88;;;5.80;97.00;;;;;;5075357;28;20048;-76
2022/01/20 12:28:09;;;;;;;12.50;1.75;;;6.00;97.00;;;;;;5097362;28;20417;-77
2022/01/20 12:30:37;;;;;;;11.32;1.92;;;6.10;96.20;;;;;;5079614;28;20098;-77
2022/01/20 12:33:14;;;;;;;17.75;1.45;;;6.30;95.80;;;;;;5078590;28;20040;-77
2022/01/20 12:35:51;;;;;;;12.88;1.90;;;6.30;95.70;;;;;;5079707;28;20391;-77
2022/01/20 12:38:22;;;;;;;15.95;2.00;;;6.20;95.50;;;;;;5076646;28;20041;-77
2022/01/20 12:40:59;;;;;;;15.02;2.10;;;6.10;95.70;;;;;;5075264;28;20083;-76
2022/01/20 12:43:42;;;;;;;16.60;1.83;;;6.00;95.80;;;;;;5075476;28;20048;-77
2022/01/20 12:46:11;;;;;;;14.65;2.13;;;6.10;95.90;;;;;;5075505;28;20135;-77
2022/01/20 12:48:37;;;;;;;22.30;2.40;;;6.30;95.60;;;;;;5075438;28;20048;-76
2022/01/20 12:51:08;;;;;;;16.63;2.00;;;6.60;95.30;;;;;;5080256;28;20080;-75
2022/01/20 12:53:54;;;;;;;15.45;2.25;;;6.90;95.30;;;;;;5079816;28;20487;-76
2022/01/20 12:56:32;;;;;;;21.23;3.45;;;7.20;94.80;;;;;;5075374;28;20048;-78
2022/01/20 12:58:58;;;;;;;18.13;2.55;;;7.40;94.60;;;;;;5073173;28;20105;-72
2022/01/20 13:01:24;;;;;;;16.42;2.15;;;7.70;94.30;;;;;;5087337;28;20127;-77
2022/01/20 13:03:51;;;;;;;16.92;2.65;;;7.90;94.00;;;;;;5073437;28;20159;-78
2022/01/20 13:06:24;;;;;;;22.50;2.35;;;8.10;93.90;;;;;;5088985;28;20056;-76
2022/01/20 13:09:06;;;;;;;13.98;2.15;;;7.70;94.50;;;;;;5074957;28;20131;-75
2022/01/20 13:11:55;;;;;;;23.77;2.60;;;7.50;94.20;;;;;;5092335;28;20047;-76
2022/01/20 13:14:33;;;;;;;14.50;1.52;;;7.00;94.30;;;;;;5094519;28;20055;-75
2022/01/20 13:17:00;;;;;;;14.85;1.70;;;6.20;96.60;;;;;;5095330;28;20131;-76
2022/01/20 13:19:36;;;;;;;13.20;1.40;;;5.70;97.80;;;;;;5094707;28;20055;-76
2022/01/20 13:22:05;;;;;;;8.93;1.63;;;5.30;98.40;;;;;;5094990;28;20101;-76
2022/01/20 13:24:33;;;;;;;4.22;0.68;;;5.00;98.70;;;;;;5094924;28;20548;-76
2022/01/20 13:27:00;;;;;;;7.55;0.85;;;5.00;98.00;;;;;;5095006;28;20105;-75
2022/01/20 13:29:39;;;;;;;4.53;0.57;;;5.10;97.80;;;;;;5077953;28;20101;-76
2022/01/20 13:32:05;;;;;;;5.43;0.70;;;5.50;97.60;;;;;;5093991;28;20086;-76
2022/01/20 13:34:30;;;;;;;6.43;0.80;;;6.10;96.20;;;;;;5094939;28;20090;-76
2022/01/20 13:36:56;;;;;;;5.03;0.60;;;6.70;96.20;;;;;;5094740;28;20552;-76
2022/01/20 13:39:28;;;;;;;9.65;1.02;;;7.50;95.30;;;;;;5077814;28;20157;-76
2022/01/20 13:45:14;;;;;;;6.10;1.17;;;6.90;94.90;;;;;;5094086;28;20087;-75
2022/01/20 13:47:58;;;;;;;14.48;1.30;;;6.30;96.20;;;;;;5095961;28;20050;-75
2022/01/20 13:50:26;;;;;;;15.68;1.65;;;5.70;97.20;;;;;;5094128;28;20113;-72
2022/01/20 13:52:54;;;;;;;10.80;1.50;;;5.80;97.70;;;;;;5094371;28;20128;-75
2022/01/20 13:55:36;;;;;;;10.48;1.30;;;6.10;97.30;;;;;;5077354;28;20044;-75
2022/01/20 13:58:03;;;;;;;9.48;1.40;;;6.20;97.00;;;;;;5094215;28;20058;-75
2022/01/20 14:00:31;;;;;;;13.75;1.27;;;6.30;96.60;;;;;;5094431;28;20044;-75